Time;durP1;ratioP1;P1;durP2;ratioP2;P2;SDS_P1;SDS_P2;PMS_P1;PMS_P2;Temp;Humidity;BMP_temperature;BMP_pressure;BME280_temperature;BME280_humidity;BME280_pressure;Samples;Min_cycle;Max_cycle;Signal;HPM_P1;HPM_P2
2022/10/18 00:01:17;;;;;;;;;;;;;;;18.25;67.60;102194.88;5056671;28;19939;-55
2022/10/18 00:03:42;;;;;;;;;;;;;;;18.23;67.84;102192.28;5061180;28;20381;-54
2022/10/18 00:06:08;;;;;;;;;;;;;;;18.23;67.89;102192.28;5070193;28;20022;-57
2022/10/18 00:08:34;;;;;;;;;;;;;;;18.24;68.02;102194.00;5064914;28;19951;-53
2022/10/18 00:10:59;;;;;;;;;;;;;;;18.27;67.88;102187.63;5070318;28;19916;-52
2022/10/18 00:13:24;;;;;;;;;;;;;;;18.28;67.87;102187.50;5066678;28;20297;-54
2022/10/18 00:15:50;;;;;;;;;;;;;;;18.33;68.12;102191.69;5066193;28;19975;-53
2022/10/18 00:18:16;;;;;;;;;;;;;;;18.34;67.72;102190.72;5070916;28;19924;-54
2022/10/18 00:20:41;;;;;;;;;;;;;;;18.35;68.07;102200.44;5068335;28;19966;-52
2022/10/18 00:23:07;;;;;;;;;;;;;;;18.36;68.02;102199.47;5070300;28;20021;-55
2022/10/18 00:25:32;;;;;;;;;;;;;;;18.38;67.97;102200.19;5066133;28;19966;-55
2022/10/18 00:27:57;;;;;;;;;;;;;;;18.38;68.06;102198.41;5067861;28;20309;-57
2022/10/18 00:30:23;;;;;;;;;;;;;;;18.40;68.05;102206.28;5067007;28;20011;-53
2022/10/18 00:32:49;;;;;;;;;;;;;;;18.41;67.87;102205.31;5068960;28;20393;-55
2022/10/18 00:35:14;;;;;;;;;;;;;;;18.41;68.47;102208.84;5068995;28;19935;-53
2022/10/18 00:37:39;;;;;;;;;;;;;;;18.41;68.69;102205.31;5068708;28;19920;-53
2022/10/18 00:40:05;;;;;;;;;;;;;;;18.41;68.57;102206.19;5068986;28;20011;-53
2022/10/18 00:42:32;;;;;;;;;;;;;;;18.41;68.85;102210.66;5068625;28;20407;-55
2022/10/18 00:45:00;;;;;;;;;;;;;;;18.42;68.68;102209.69;5070243;28;20385;-53
2022/10/18 00:47:26;;;;;;;;;;;;;;;18.43;68.78;102208.75;5067627;28;19924;-55
2022/10/18 00:49:53;;;;;;;;;;;;;;;18.43;69.01;102216.75;5074925;28;20327;-53
2022/10/18 00:52:28;;;;;;;;;;;;;;;18.45;69.16;102206.00;5067713;28;19921;-53
2022/10/18 00:54:54;;;;;;;;;;;;;;;18.46;69.45;102197.88;5065300;28;19916;-54
2022/10/18 00:57:19;;;;;;;;;;;;;;;18.48;69.23;102201.31;5064986;28;19917;-53
2022/10/18 00:59:45;;;;;;;;;;;;;;;18.50;69.10;102204.72;5065304;28;20469;-53
2022/10/18 01:02:13;;;;;;;;;;;;;;;18.55;69.38;102210.56;5061532;28;19920;-54
2022/10/18 01:04:39;;;;;;;;;;;;;;;18.56;69.12;102204.28;5068368;28;19924;-55
2022/10/18 01:07:04;;;;;;;;;;;;;;;18.55;69.57;102207.91;5065988;28;19916;-56
2022/10/18 01:09:35;;;;;;;;;;;;;;;18.56;69.31;102209.59;5066929;28;20003;-55
2022/10/18 01:12:21;;;;;;;;;;;;;;;18.56;69.60;102204.28;5063735;28;19923;-53
2022/10/18 01:15:02;;;;;;;;;;;;;;;18.59;69.60;102216.56;5062507;28;19925;-58
2022/10/18 01:17:28;;;;;;;;;;;;;;;18.61;69.38;102222.63;5059339;28;19916;-53
2022/10/18 01:20:02;;;;;;;;;;;;;;;18.60;69.49;102223.59;5060656;28;19971;-54
2022/10/18 01:22:33;;;;;;;;;;;;;;;18.59;69.63;102220.06;5053253;28;19960;-53
2022/10/18 01:25:17;;;;;;;;;;;;;;;18.59;69.47;102224.56;5056223;28;19946;-53
2022/10/18 01:28:06;;;;;;;;;;;;;;;18.55;69.65;102223.91;5060172;28;20269;-55
2022/10/18 01:30:35;;;;;;;;;;;;;;;18.56;69.57;102222.09;5061915;28;20377;-52
2022/10/18 01:33:15;;;;;;;;;;;;;;;18.57;69.90;102229.13;5053742;28;20461;-54
2022/10/18 01:35:46;;;;;;;;;;;;;;;18.57;70.13;102229.13;5061799;28;19925;-53
2022/10/18 01:38:15;;;;;;;;;;;;;;;18.58;70.06;102221.03;5072651;28;20292;-53
2022/10/18 01:40:42;;;;;;;;;;;;;;;18.60;69.82;102220.94;5042455;28;19916;-53
2022/10/18 01:43:09;;;;;;;;;;;;;;;18.61;70.05;102211.94;5060134;28;20015;-53
2022/10/18 01:45:34;;;;;;;;;;;;;;;18.63;69.88;102219.88;5065936;28;19925;-52
2022/10/18 01:48:00;;;;;;;;;;;;;;;18.62;69.83;102224.31;5063798;28;19921;-52
2022/10/18 01:50:30;;;;;;;;;;;;;;;18.61;70.19;102221.78;5060700;28;19982;-52
2022/10/18 01:52:56;;;;;;;;;;;;;;;18.62;69.94;102223.47;5066682;28;19970;-53
2022/10/18 01:55:23;;;;;;;;;;;;;;;18.58;70.37;102213.03;5069355;28;19928;-55
2022/10/18 01:57:58;;;;;;;;;;;;;;;18.58;70.20;102213.03;5068881;28;19927;-52
2022/10/18 02:00:39;;;;;;;;;;;;;;;18.58;70.38;102213.03;5063332;28;19966;-55
2022/10/18 02:03:07;;;;;;;;;;;;;;;18.57;70.41;102219.31;5062220;28;19921;-52
2022/10/18 02:05:53;;;;;;;;;;;;;;;18.59;70.29;102211.22;5066211;28;19994;-53
2022/10/18 02:08:34;;;;;;;;;;;;;;;18.59;70.56;102211.22;5052346;28;19920;-52
2022/10/18 02:11:09;;;;;;;;;;;;;;;18.59;70.43;102216.56;5063213;28;19928;-53
2022/10/18 02:13:40;;;;;;;;;;;;;;;18.58;70.20;102222.84;5059698;28;19925;-54
2022/10/18 02:16:14;;;;;;;;;;;;;;;18.57;70.29;102221.13;5061229;28;20067;-53
2022/10/18 02:18:43;;;;;;;;;;;;;;;18.52;70.25;102218.78;5065820;28;20300;-53
2022/10/18 02:21:12;;;;;;;;;;;;;;;18.50;70.59;102218.03;5067454;28;19976;-52
2022/10/18 02:23:37;;;;;;;;;;;;;;;18.49;70.40;102223.47;5063610;28;19916;-52
2022/10/18 02:26:03;;;;;;;;;;;;;;;18.45;70.58;102221.97;5065420;28;20353;-54
2022/10/18 02:28:28;;;;;;;;;;;;;;;18.43;70.90;102220.28;5059624;28;19975;-53
2022/10/18 02:31:01;;;;;;;;;;;;;;;18.42;71.07;102212.38;5063651;28;19916;-52
2022/10/18 02:33:34;;;;;;;;;;;;;;;18.41;70.82;102218.66;5064340;28;19925;-55
2022/10/18 02:36:03;;;;;;;;;;;;;;;18.37;70.99;102215.34;5062186;28;20034;-52
2022/10/18 02:38:30;;;;;;;;;;;;;;;18.36;71.27;102207.47;5064550;28;19927;-53
2022/10/18 02:40:56;;;;;;;;;;;;;;;18.36;71.08;102213.63;5066519;28;19936;-53
2022/10/18 02:43:22;;;;;;;;;;;;;;;18.37;71.03;102227.84;5062912;28;19917;-52
2022/10/18 02:45:48;;;;;;;;;;;;;;;18.38;71.41;102237.50;5063088;28;19925;-53
2022/10/18 02:48:13;;;;;;;;;;;;;;;18.36;71.45;102221.63;5068952;28;20023;-57
2022/10/18 02:50:38;;;;;;;;;;;;;;;18.35;71.52;102232.41;5072923;28;20548;-53
2022/10/18 02:53:04;;;;;;;;;;;;;;;18.36;71.39;102234.13;5066855;28;20300;-53
2022/10/18 02:55:29;;;;;;;;;;;;;;;18.36;71.45;102223.47;5067929;28;19923;-53
2022/10/18 02:57:54;;;;;;;;;;;;;;;18.33;71.41;102221.00;5066430;28;19970;-52
2022/10/18 03:00:19;;;;;;;;;;;;;;;18.33;71.65;102215.66;5072479;28;19920;-55
2022/10/18 03:02:45;;;;;;;;;;;;;;;18.32;71.78;102211.28;5063182;28;19924;-54
2022/10/18 03:05:10;;;;;;;;;;;;;;;18.32;71.48;102206.81;5068455;28;21504;-55
2022/10/18 03:07:35;;;;;;;;;;;;;;;18.32;71.46;102203.28;5068755;28;19932;-54
2022/10/18 03:10:01;;;;;;;;;;;;;;;18.31;71.88;102205.09;5065989;28;19935;-52
2022/10/18 03:12:26;;;;;;;;;;;;;;;18.32;71.64;102213.97;5066494;28;20304;-52
2022/10/18 03:14:51;;;;;;;;;;;;;;;18.30;71.98;102223.84;5066262;28;19925;-53
2022/10/18 03:17:16;;;;;;;;;;;;;;;18.27;72.01;102231.09;5068722;28;19924;-52
2022/10/18 03:19:42;;;;;;;;;;;;;;;18.24;71.81;102241.94;5068662;28;19924;-53
2022/10/18 03:22:07;;;;;;;;;;;;;;;18.23;71.88;102234.91;5066205;28;19920;-60
2022/10/18 03:24:32;;;;;;;;;;;;;;;18.21;72.26;102231.53;5063445;28;20916;-54
2022/10/18 03:26:58;;;;;;;;;;;;;;;18.19;72.36;102244.09;5067345;28;19920;-56
2022/10/18 03:29:23;;;;;;;;;;;;;;;18.17;72.23;102229.13;5069297;28;19916;-53
2022/10/18 03:31:48;;;;;;;;;;;;;;;18.14;72.34;102240.88;5067065;28;19964;-55
2022/10/18 03:34:15;;;;;;;;;;;;;;;18.13;72.77;102255.13;5069296;28;19993;-52
2022/10/18 03:36:41;;;;;;;;;;;;;;;18.10;72.67;102258.00;5066952;28;19954;-56
2022/10/18 03:39:06;;;;;;;;;;;;;;;18.07;72.82;102255.56;5069461;28;19968;-57
2022/10/18 03:41:31;;;;;;;;;;;;;;;18.03;72.67;102248.72;5068333;28;19959;-56
2022/10/18 03:43:57;;;;;;;;;;;;;;;18.03;72.95;102254.03;5066833;28;19964;-53
2022/10/18 03:46:22;;;;;;;;;;;;;;;18.02;72.68;102252.34;5065732;28;20388;-56
2022/10/18 03:48:47;;;;;;;;;;;;;;;18.01;72.61;102248.81;5069743;28;20319;-56
2022/10/18 03:51:13;;;;;;;;;;;;;;;17.96;72.88;102249.06;5066153;28;19921;-52
2022/10/18 03:53:38;;;;;;;;;;;;;;;17.90;73.15;102241.50;5068837;28;19967;-54
2022/10/18 03:56:03;;;;;;;;;;;;;;;17.85;73.14;102234.78;5064169;28;20292;-55
2022/10/18 03:58:29;;;;;;;;;;;;;;;17.82;73.52;102220.69;5066697;28;20452;-56
2022/10/18 04:00:54;;;;;;;;;;;;;;;17.80;73.53;102219.94;5064137;28;19967;-56
2022/10/18 04:03:20;;;;;;;;;;;;;;;17.78;73.39;102229.84;5067861;28;20301;-58
2022/10/18 04:05:46;;;;;;;;;;;;;;;17.77;73.69;102233.44;5067231;28;20444;-56
2022/10/18 04:08:12;;;;;;;;;;;;;;;17.74;73.48;102246.09;5065070;28;19920;-58
2022/10/18 04:10:38;;;;;;;;;;;;;;;17.72;73.91;102243.53;5069347;28;19935;-54
2022/10/18 04:13:04;;;;;;;;;;;;;;;17.70;74.07;102240.09;5067093;28;19928;-56
2022/10/18 04:15:29;;;;;;;;;;;;;;;17.70;73.94;102225.97;5064445;28;19963;-56
2022/10/18 04:17:55;;;;;;;;;;;;;;;17.68;74.09;102224.25;5062958;28;19928;-56
2022/10/18 04:20:21;;;;;;;;;;;;;;;17.68;74.00;102224.25;5064300;28;20580;-56
2022/10/18 04:22:47;;;;;;;;;;;;;;;17.66;73.94;102236.78;5055290;28;20065;-54
2022/10/18 04:25:12;;;;;;;;;;;;;;;17.62;74.27;102235.28;5065415;28;19994;-56
2022/10/18 04:27:37;;;;;;;;;;;;;;;17.61;74.19;102249.56;5064835;28;19975;-54
2022/10/18 04:30:03;;;;;;;;;;;;;;;17.60;74.05;102269.16;5048458;28;19928;-59
2022/10/18 04:32:28;;;;;;;;;;;;;;;17.55;74.09;102276.56;5049411;28;20884;-52
2022/10/18 04:34:53;;;;;;;;;;;;;;;17.50;74.28;102268.88;5053495;28;20313;-56
2022/10/18 04:37:19;;;;;;;;;;;;;;;17.45;74.76;102276.28;5064010;28;20007;-56
2022/10/18 04:39:47;;;;;;;;;;;;;;;17.44;74.63;102281.72;5067291;28;19978;-54
2022/10/18 04:42:12;;;;;;;;;;;;;;;17.45;74.63;102280.75;5060756;28;19947;-52
2022/10/18 04:44:38;;;;;;;;;;;;;;;17.42;74.49;102270.31;5070727;28;19924;-54
2022/10/18 04:47:03;;;;;;;;;;;;;;;17.39;74.54;102275.81;5066963;28;19921;-53
2022/10/18 04:49:28;;;;;;;;;;;;;;;17.36;74.64;102269.72;5067791;28;19931;-53
2022/10/18 04:51:54;;;;;;;;;;;;;;;17.36;74.63;102272.38;5051541;28;19924;-53
2022/10/18 04:54:19;;;;;;;;;;;;;;;17.37;74.52;102273.25;5056234;28;19929;-56
2022/10/18 04:56:44;;;;;;;;;;;;;;;17.35;74.46;102262.69;5053892;28;20506;-54
2022/10/18 04:59:09;;;;;;;;;;;;;;;17.37;74.46;102262.63;5057725;28;19989;-53
2022/10/18 05:01:35;;;;;;;;;;;;;;;17.39;74.55;102257.19;5061693;28;19917;-55
2022/10/18 05:04:00;;;;;;;;;;;;;;;17.41;74.41;102250.81;5061830;28;19912;-54
2022/10/18 05:06:25;;;;;;;;;;;;;;;17.44;74.23;102257.75;5057865;28;20476;-53
2022/10/18 05:08:51;;;;;;;;;;;;;;;17.44;74.39;102252.44;5063156;28;19920;-51
2022/10/18 05:11:16;;;;;;;;;;;;;;;17.44;74.34;102247.13;5065282;28;19935;-52
2022/10/18 05:13:41;;;;;;;;;;;;;;;17.44;74.42;102250.63;5067024;28;20034;-55
2022/10/18 05:16:07;;;;;;;;;;;;;;;17.47;74.44;102246.94;5069836;28;20304;-52
2022/10/18 05:18:32;;;;;;;;;;;;;;;17.49;74.26;102250.31;5068883;28;19931;-52
2022/10/18 05:20:57;;;;;;;;;;;;;;;17.51;74.35;102248.41;5069102;28;20049;-55
2022/10/18 05:23:23;;;;;;;;;;;;;;;17.54;74.26;102252.72;5067358;28;19924;-53
2022/10/18 05:25:48;;;;;;;;;;;;;;;17.56;74.08;102266.75;5069419;28;19932;-51
2022/10/18 05:28:14;;;;;;;;;;;;;;;17.55;74.28;102265.91;5067785;28;20023;-53
2022/10/18 05:30:40;;;;;;;;;;;;;;;17.56;74.17;102272.94;5070004;28;19920;-52
2022/10/18 05:33:05;;;;;;;;;;;;;;;17.56;74.06;102270.28;5069068;28;19920;-52
2022/10/18 05:35:31;;;;;;;;;;;;;;;17.56;73.93;102267.63;5067732;28;19970;-55
2022/10/18 05:37:56;;;;;;;;;;;;;;;17.56;74.21;102267.63;5066756;28;20309;-52
2022/10/18 05:40:21;;;;;;;;;;;;;;;17.55;74.07;102265.91;5068153;28;20022;-52
2022/10/18 05:42:47;;;;;;;;;;;;;;;17.55;74.19;102259.72;5068139;28;19978;-54
2022/10/18 05:45:12;;;;;;;;;;;;;;;17.55;74.21;102262.38;5074341;28;19924;-51
2022/10/18 05:47:37;;;;;;;;;;;;;;;17.56;74.39;102267.63;5066035;28;20520;-52
2022/10/18 05:50:03;;;;;;;;;;;;;;;17.57;74.24;102266.69;5071753;28;19926;-53
2022/10/18 05:52:28;;;;;;;;;;;;;;;17.57;74.18;102256.03;5071298;28;20001;-52
2022/10/18 05:54:53;;;;;;;;;;;;;;;17.56;74.33;102256.97;5070569;28;20018;-54
2022/10/18 05:57:18;;;;;;;;;;;;;;;17.57;74.32;102255.16;5071191;28;19926;-52
2022/10/18 05:59:44;;;;;;;;;;;;;;;17.58;74.48;102251.53;5069590;28;20213;-52
2022/10/18 06:02:10;;;;;;;;;;;;;;;17.55;74.31;102249.94;5067162;28;19928;-54
2022/10/18 06:04:35;;;;;;;;;;;;;;;17.55;74.41;102249.94;5066556;28;20305;-52
2022/10/18 06:07:01;;;;;;;;;;;;;;;17.54;74.41;102258.03;5076273;28;19923;-52
2022/10/18 06:09:27;;;;;;;;;;;;;;;17.55;74.58;102260.59;5068720;28;20360;-52
2022/10/18 06:11:52;;;;;;;;;;;;;;;17.55;74.51;102252.59;5066954;28;19920;-52
2022/10/18 06:14:18;;;;;;;;;;;;;;;17.54;74.68;102258.88;5069396;28;19924;-52
2022/10/18 06:16:43;;;;;;;;;;;;;;;17.55;74.63;102265.91;5067487;28;19916;-52
2022/10/18 06:19:09;;;;;;;;;;;;;;;17.55;74.50;102267.69;5069829;28;19963;-52
2022/10/18 06:21:34;;;;;;;;;;;;;;;17.54;74.46;102274.00;5067724;28;20011;-53
2022/10/18 06:23:59;;;;;;;;;;;;;;;17.52;74.51;102277.63;5068433;28;19955;-55
2022/10/18 06:26:26;;;;;;;;;;;;;;;17.50;74.53;102278.63;5067991;28;20389;-52
2022/10/18 06:28:51;;;;;;;;;;;;;;;17.49;74.33;102275.13;5069250;28;20303;-52
2022/10/18 06:31:17;;;;;;;;;;;;;;;17.49;74.50;102266.28;5065167;28;19920;-55
2022/10/18 06:33:42;;;;;;;;;;;;;;;17.49;74.41;102268.94;5066429;28;20303;-52
2022/10/18 06:36:13;;;;;;;;;;;;;;;17.49;74.43;102266.28;5064703;28;20127;-54
2022/10/18 06:38:38;;;;;;;;;;;;;;;17.49;74.50;102271.59;5067607;28;19928;-52
2022/10/18 06:41:04;;;;;;;;;;;;;;;17.48;74.66;102264.56;5071616;28;19930;-53
2022/10/18 06:43:29;;;;;;;;;;;;;;;17.48;74.78;102254.81;5066864;28;19960;-52
2022/10/18 06:45:55;;;;;;;;;;;;;;;17.49;74.56;102258.31;5068009;28;19925;-52
2022/10/18 06:48:21;;;;;;;;;;;;;;;17.49;74.71;102255.63;5065652;28;20003;-51
2022/10/18 06:50:50;;;;;;;;;;;;;;;17.49;74.83;102251.19;5063785;28;19960;-52
2022/10/18 06:53:15;;;;;;;;;;;;;;;17.49;74.87;102248.53;5066785;28;19999;-51
2022/10/18 06:55:40;;;;;;;;;;;;;;;17.51;74.77;102259.06;5065479;28;19924;-55
2022/10/18 06:58:06;;;;;;;;;;;;;;;17.50;74.75;102254.69;5069131;28;19967;-52
2022/10/18 07:00:31;;;;;;;;;;;;;;;17.50;75.01;102252.03;5068564;28;19936;-52
2022/10/18 07:02:57;;;;;;;;;;;;;;;17.51;74.76;102254.63;5065214;28;19935;-55
2022/10/18 07:05:22;;;;;;;;;;;;;;;17.52;74.94;102266.09;5067445;28;19928;-52
2022/10/18 07:07:47;;;;;;;;;;;;;;;17.53;74.80;102270.47;5064904;28;20336;-51
2022/10/18 07:10:13;;;;;;;;;;;;;;;17.52;74.68;102279.41;5064622;28;19920;-55
2022/10/18 07:12:38;;;;;;;;;;;;;;;17.51;74.77;102275.03;5063859;28;19924;-52
2022/10/18 07:15:03;;;;;;;;;;;;;;;17.51;74.78;102272.38;5061864;28;19924;-54
2022/10/18 07:17:29;;;;;;;;;;;;;;;17.52;74.74;102271.41;5065959;28;20397;-53
2022/10/18 07:19:54;;;;;;;;;;;;;;;17.52;75.06;102266.09;5066817;28;19928;-52
2022/10/18 07:22:19;;;;;;;;;;;;;;;17.54;74.82;102264.19;5065071;28;20417;-52
2022/10/18 07:24:45;;;;;;;;;;;;;;;17.56;74.91;102264.97;5062996;28;20107;-55
2022/10/18 07:27:10;;;;;;;;;;;;;;;17.56;75.01;102259.63;5066663;28;19935;-52
2022/10/18 07:29:37;;;;;;;;;;;;;;;17.57;75.09;102252.50;5065894;28;19924;-55
2022/10/18 07:32:02;;;;;;;;;;;;;;;17.58;74.79;102248.88;5065349;28;20003;-55
2022/10/18 07:34:27;;;;;;;;;;;;;;;17.60;75.04;102253.19;5062081;28;20015;-53
2022/10/18 07:36:53;;;;;;;;;;;;;;;17.61;75.02;102264.66;5065838;28;19916;-53
2022/10/18 07:39:18;;;;;;;;;;;;;;;17.63;75.09;102263.59;5067150;28;19931;-56
2022/10/18 07:41:43;;;;;;;;;;;;;;;17.65;74.98;102261.69;5065776;28;19931;-55
2022/10/18 07:44:09;;;;;;;;;;;;;;;17.67;75.20;102270.44;5064813;28;19920;-52
2022/10/18 07:46:35;;;;;;;;;;;;;;;17.68;75.19;102272.16;5065178;28;19932;-51
2022/10/18 07:49:00;;;;;;;;;;;;;;;17.72;74.97;102287.94;5066153;28;19929;-54
2022/10/18 07:51:26;;;;;;;;;;;;;;;17.75;75.09;102298.41;5065155;28;19978;-54
2022/10/18 07:53:51;;;;;;;;;;;;;;;17.76;74.83;102310.75;5064105;28;19937;-52
2022/10/18 07:56:19;;;;;;;;;;;;;;;17.76;74.83;102300.13;5065528;28;19920;-56
2022/10/18 07:58:45;;;;;;;;;;;;;;;17.75;74.74;102287.75;5064233;28;19951;-55
2022/10/18 08:01:12;;;;;;;;;;;;;;;17.75;74.73;102296.59;5063825;28;19916;-54
2022/10/18 08:03:37;;;;;;;;;;;;;;;17.74;74.91;102304.69;5062624;28;20439;-52
2022/10/18 08:06:04;;;;;;;;;;;;;;;17.73;74.70;102310.94;5065283;28;19917;-52
2022/10/18 08:08:29;;;;;;;;;;;;;;;17.72;74.84;102306.56;5065960;28;19925;-57
2022/10/18 08:10:55;;;;;;;;;;;;;;;17.71;74.81;102310.19;5043630;28;19924;-55
2022/10/18 08:13:20;;;;;;;;;;;;;;;17.70;74.79;102311.13;5064971;28;21316;-51
2022/10/18 08:15:46;;;;;;;;;;;;;;;17.71;74.86;102315.50;5067531;28;20657;-52
2022/10/18 08:18:11;;;;;;;;;;;;;;;17.69;74.99;102302.31;5067320;28;19927;-52
2022/10/18 08:20:41;;;;;;;;;;;;;;;17.71;74.86;102302.19;5065411;28;19925;-55
2022/10/18 08:23:07;;;;;;;;;;;;;;;17.70;74.91;102305.81;5066112;28;19927;-52
2022/10/18 08:25:33;;;;;;;;;;;;;;;17.71;74.80;102307.53;5067315;28;20039;-56
2022/10/18 08:28:00;;;;;;;;;;;;;;;17.71;75.06;102303.03;5064861;28;20016;-53
2022/10/18 08:30:25;;;;;;;;;;;;;;;17.72;74.89;102303.91;5066696;28;19943;-53
2022/10/18 08:32:50;;;;;;;;;;;;;;;17.72;74.78;102306.56;5065343;28;20546;-52
2022/10/18 08:35:16;;;;;;;;;;;;;;;17.71;74.96;102294.22;5065076;28;19963;-52
2022/10/18 08:37:41;;;;;;;;;;;;;;;17.70;74.93;102293.34;5066535;28;19924;-52
2022/10/18 08:40:06;;;;;;;;;;;;;;;17.68;74.75;102290.78;5065746;28;19932;-51
2022/10/18 08:42:56;;;;;;;;;;;;;;;17.66;74.73;102294.50;5066487;28;19920;-53
2022/10/18 08:45:22;;;;;;;;;;;;;;;17.63;74.79;102284.06;5067220;28;20015;-54
2022/10/18 08:47:50;;;;;;;;;;;;;;;17.62;74.95;102293.84;5065570;28;20012;-55
2022/10/18 08:50:18;;;;;;;;;;;;;;;17.61;74.99;102294.81;5066997;28;19925;-52
2022/10/18 08:52:57;;;;;;;;;;;;;;;17.60;75.05;102290.44;5063882;28;20499;-51
2022/10/18 08:55:35;;;;;;;;;;;;;;;17.60;74.91;102297.56;5070348;28;20069;-56
2022/10/18 08:58:00;;;;;;;;;;;;;;;17.58;75.14;102287.00;5063025;28;19920;-56
2022/10/18 09:00:28;;;;;;;;;;;;;;;17.57;74.85;102293.28;5066019;28;19924;-56
2022/10/18 09:03:11;;;;;;;;;;;;;;;17.55;75.14;102289.88;5065558;28;19983;-56
2022/10/18 09:05:37;;;;;;;;;;;;;;;17.56;75.09;102288.91;5066681;28;19931;-58
2022/10/18 09:08:22;;;;;;;;;;;;;;;17.57;75.09;102289.75;5066028;28;19924;-53
2022/10/18 09:10:47;;;;;;;;;;;;;;;17.58;74.94;102295.00;5062993;28;19994;-57
2022/10/18 09:13:33;;;;;;;;;;;;;;;17.57;75.07;102295.06;5061071;28;19916;-56
2022/10/18 09:16:00;;;;;;;;;;;;;;;17.57;75.24;102295.06;5063654;28;19921;-56
2022/10/18 09:18:40;;;;;;;;;;;;;;;17.56;74.99;102302.22;5064321;28;19921;-56
2022/10/18 09:21:05;;;;;;;;;;;;;;;17.56;74.99;102296.91;5064571;28;19917;-55
2022/10/18 09:23:34;;;;;;;;;;;;;;;17.57;75.14;102306.59;5045663;28;19921;-56
2022/10/18 09:26:09;;;;;;;;;;;;;;;17.57;75.22;102298.59;5065905;28;19924;-57
2022/10/18 09:28:43;;;;;;;;;;;;;;;17.58;75.25;102297.66;5067505;28;19962;-57
2022/10/18 09:31:20;;;;;;;;;;;;;;;17.59;75.00;102288.72;5068356;28;20039;-58
2022/10/18 09:33:46;;;;;;;;;;;;;;;17.58;75.17;102291.47;5062294;28;20876;-56
2022/10/18 09:36:19;;;;;;;;;;;;;;;17.58;75.09;102287.00;5063682;28;20373;-54
2022/10/18 09:38:50;;;;;;;;;;;;;;;17.59;75.24;102291.38;5066668;28;19946;-59
2022/10/18 09:41:21;;;;;;;;;;;;;;;17.59;75.28;102296.72;5066792;28;19923;-58
2022/10/18 09:43:50;;;;;;;;;;;;;;;17.59;75.08;102294.06;5063614;28;19924;-56
2022/10/18 09:46:17;;;;;;;;;;;;;;;17.59;75.32;102286.06;5064025;28;19924;-54
2022/10/18 09:48:49;;;;;;;;;;;;;;;17.61;75.32;102280.63;5065382;28;19920;-56
2022/10/18 09:51:20;;;;;;;;;;;;;;;17.61;75.04;102280.63;5061497;28;19982;-57
2022/10/18 09:53:58;;;;;;;;;;;;;;;17.60;75.21;102277.13;5062745;28;19938;-53
2022/10/18 09:56:28;;;;;;;;;;;;;;;17.61;75.04;102284.16;5063834;28;19916;-54
2022/10/18 09:58:53;;;;;;;;;;;;;;;17.61;75.21;102288.63;5066555;28;20320;-52
2022/10/18 10:01:22;;;;;;;;;;;;;;;17.61;75.20;102286.81;5068048;28;20373;-52
2022/10/18 10:03:47;;;;;;;;;;;;;;;17.62;75.32;102287.66;5069192;28;20161;-53
2022/10/18 10:06:14;;;;;;;;;;;;;;;17.61;75.27;102291.28;5071178;28;19952;-53
2022/10/18 10:08:41;;;;;;;;;;;;;;;17.59;75.06;102286.06;5066575;28;19920;-53
2022/10/18 10:11:25;;;;;;;;;;;;;;;17.60;75.19;102295.75;5066536;28;20307;-53
2022/10/18 10:13:50;;;;;;;;;;;;;;;17.60;75.30;102294.88;5067154;28;19955;-52
2022/10/18 10:16:16;;;;;;;;;;;;;;;17.58;75.17;102292.34;5066786;28;19924;-52
2022/10/18 10:18:42;;;;;;;;;;;;;;;17.57;75.39;102290.63;5066938;28;19974;-52
2022/10/18 10:21:13;;;;;;;;;;;;;;;17.56;75.50;102286.25;5070805;28;19928;-54
2022/10/18 10:23:44;;;;;;;;;;;;;;;17.56;75.32;102288.91;5066840;28;19982;-53
2022/10/18 10:26:27;;;;;;;;;;;;;;;17.55;75.48;102292.53;5065262;28;19966;-53
2022/10/18 10:28:52;;;;;;;;;;;;;;;17.54;75.30;102285.50;5076250;28;20225;-55
2022/10/18 10:31:18;;;;;;;;;;;;;;;17.54;75.29;102280.16;5066858;28;19951;-52
2022/10/18 10:33:45;;;;;;;;;;;;;;;17.54;75.15;102280.16;5073605;28;19917;-52
2022/10/18 10:36:18;;;;;;;;;;;;;;;17.52;75.41;102276.75;5064290;28;19959;-54
2022/10/18 10:38:44;;;;;;;;;;;;;;;17.51;75.16;102273.25;5062628;28;19924;-53
2022/10/18 10:41:20;;;;;;;;;;;;;;;17.51;75.37;102275.03;5064228;28;20049;-52
2022/10/18 10:43:45;;;;;;;;;;;;;;;17.50;75.32;102273.31;5065854;28;19969;-55
2022/10/18 10:46:12;;;;;;;;;;;;;;;17.49;75.19;102272.47;5064059;28;19920;-55
2022/10/18 10:48:40;;;;;;;;;;;;;;;17.47;75.25;102273.53;5066264;28;19968;-52
2022/10/18 10:51:07;;;;;;;;;;;;;;;17.45;75.37;102276.28;5063450;28;19916;-54
2022/10/18 10:53:41;;;;;;;;;;;;;;;17.44;75.56;102274.56;5073454;28;19927;-52
2022/10/18 10:56:14;;;;;;;;;;;;;;;17.42;75.51;102275.63;5067087;28;19924;-53
2022/10/18 10:58:40;;;;;;;;;;;;;;;17.40;75.29;102277.53;5065932;28;19925;-57
2022/10/18 11:01:24;;;;;;;;;;;;;;;17.40;75.65;102272.19;5065581;28;20684;-52
2022/10/18 11:03:50;;;;;;;;;;;;;;;17.41;75.57;102274.75;5063626;28;19933;-55
2022/10/18 11:06:29;;;;;;;;;;;;;;;17.43;75.69;102272.84;5066159;28;20353;-52
2022/10/18 11:08:56;;;;;;;;;;;;;;;17.43;75.66;102266.69;5067997;28;19916;-52
2022/10/18 11:11:26;;;;;;;;;;;;;;;17.41;75.58;102264.09;5068645;28;19990;-52
2022/10/18 11:13:54;;;;;;;;;;;;;;;17.42;75.66;102255.19;5063057;28;19920;-53
2022/10/18 11:16:32;;;;;;;;;;;;;;;17.42;75.65;102260.50;5065708;28;19920;-56
2022/10/18 11:19:01;;;;;;;;;;;;;;;17.41;75.48;102268.59;5065843;28;20019;-53
2022/10/18 11:21:29;;;;;;;;;;;;;;;17.37;75.32;102274.09;5066705;28;19925;-52
2022/10/18 11:23:56;;;;;;;;;;;;;;;17.34;75.29;102268.13;5066614;28;19921;-52
2022/10/18 11:26:51;;;;;;;;;;;;;;;17.34;75.39;102252.16;5064753;28;20011;-55
2022/10/18 11:29:24;;;;;;;;;;;;;;;17.34;75.48;102225.56;5048232;28;19920;-53
2022/10/18 11:32:09;;;;;;;;;;;;;;;17.35;75.43;102222.78;5063327;28;19920;-52
2022/10/18 11:34:53;;;;;;;;;;;;;;;17.36;75.67;102218.34;5065699;28;19928;-53
2022/10/18 11:37:29;;;;;;;;;;;;;;;17.36;75.39;102195.22;5066661;28;19932;-56
2022/10/18 11:39:54;;;;;;;;;;;;;;;17.36;75.42;102213.00;5062595;28;19921;-53
2022/10/18 11:42:29;;;;;;;;;;;;;;;17.36;75.67;102227.16;5066073;28;19989;-52
2022/10/18 11:45:09;;;;;;;;;;;;;;;17.37;75.37;102226.19;5067264;28;20417;-53
2022/10/18 11:47:43;;;;;;;;;;;;;;;17.38;75.43;102219.09;5064648;28;20302;-53
2022/10/18 11:50:14;;;;;;;;;;;;;;;17.38;75.44;102227.06;5064207;28;20608;-53
2022/10/18 11:52:43;;;;;;;;;;;;;;;17.37;75.41;102215.56;5061426;28;20471;-52
2022/10/18 11:55:08;;;;;;;;;;;;;;;17.39;75.41;102206.63;5065359;28;19949;-52
2022/10/18 11:57:40;;;;;;;;;;;;;;;17.39;75.60;102203.97;5066436;28;19928;-52
2022/10/18 12:00:11;;;;;;;;;;;;;;;17.40;75.68;102203.03;5066667;28;19935;-52
2022/10/18 12:02:55;;;;;;;;;;;;;;;17.44;75.65;102202.72;5065652;28;20019;-53
2022/10/18 12:05:21;;;;;;;;;;;;;;;17.49;75.58;102207.75;5057487;28;19924;-55
2022/10/18 12:07:52;;;;;;;;;;;;;;;17.49;75.58;102199.75;5062464;28;19924;-55
2022/10/18 12:10:18;;;;;;;;;;;;;;;17.51;75.45;102195.19;5067037;28;19920;-55
2022/10/18 12:12:57;;;;;;;;;;;;;;;17.55;75.27;102201.16;5064406;28;20304;-54
2022/10/18 12:15:24;;;;;;;;;;;;;;;17.57;75.33;102192.16;5067602;28;20411;-52
2022/10/18 12:17:53;;;;;;;;;;;;;;;17.59;75.29;102198.25;5062880;28;19924;-53
2022/10/18 12:20:32;;;;;;;;;;;;;;;17.59;75.01;102202.69;5063150;28;19929;-53
2022/10/18 12:22:57;;;;;;;;;;;;;;;17.58;75.01;102191.19;5060191;28;19939;-52
2022/10/18 12:25:23;;;;;;;;;;;;;;;17.58;75.12;102191.19;5068153;28;20289;-52
2022/10/18 12:27:53;;;;;;;;;;;;;;;17.56;74.95;102185.13;5064086;28;20308;-52
2022/10/18 12:30:37;;;;;;;;;;;;;;;17.56;74.78;102193.09;5064231;28;19959;-52
2022/10/18 12:33:11;;;;;;;;;;;;;;;17.55;74.76;102203.81;5068154;28;20003;-52
2022/10/18 12:35:49;;;;;;;;;;;;;;;17.53;74.73;102198.63;5061485;28;20058;-52
2022/10/18 12:38:33;;;;;;;;;;;;;;;17.52;74.85;102186.25;5060980;28;19924;-54
2022/10/18 12:40:59;;;;;;;;;;;;;;;17.52;74.85;102188.94;5055673;28;20429;-54